sensor_id;sensor_type;location;lat;lon;timestamp;P1;durP1;ratioP1;P2;durP2;ratioP2
55655;SDS011;41530;52.382;5.270;2024-03-23T00:52:16;11.77;;;3.38;;
55655;SDS011;41530;52.382;5.270;2024-03-23T00:54:41;11.80;;;3.47;;
55655;SDS011;41530;52.382;5.270;2024-03-23T00:57:07;13.27;;;3.38;;
55655;SDS011;41530;52.382;5.270;2024-03-23T00:59:33;13.70;;;3.78;;
55655;SDS011;41530;52.382;5.270;2024-03-23T01:01:58;14.18;;;3.22;;
55655;SDS011;41530;52.382;5.270;2024-03-23T01:04:25;13.43;;;3.92;;
55655;SDS011;41530;52.382;5.270;2024-03-23T01:06:51;12.98;;;3.83;;
55655;SDS011;41530;52.382;5.270;2024-03-23T01:09:17;14.23;;;4.13;;
55655;SDS011;41530;52.382;5.270;2024-03-23T01:11:42;14.45;;;3.40;;
55655;SDS011;41530;52.382;5.270;2024-03-23T01:14:08;13.80;;;3.75;;
55655;SDS011;41530;52.382;5.270;2024-03-23T01:16:33;13.43;;;3.50;;
55655;SDS011;41530;52.382;5.270;2024-03-23T01:18:59;14.90;;;4.40;;
55655;SDS011;41530;52.382;5.270;2024-03-23T01:21:25;16.08;;;4.32;;
55655;SDS011;41530;52.382;5.270;2024-03-23T01:23:50;13.68;;;3.83;;
55655;SDS011;41530;52.382;5.270;2024-03-23T01:26:16;16.85;;;4.15;;
55655;SDS011;41530;52.382;5.270;2024-03-23T01:28:44;13.82;;;4.07;;
55655;SDS011;41530;52.382;5.270;2024-03-23T01:31:10;13.18;;;3.85;;
55655;SDS011;41530;52.382;5.270;2024-03-23T01:33:36;14.48;;;4.15;;
55655;SDS011;41530;52.382;5.270;2024-03-23T01:36:01;16.70;;;4.30;;
55655;SDS011;41530;52.382;5.270;2024-03-23T01:38:28;14.25;;;4.05;;
55655;SDS011;41530;52.382;5.270;2024-03-23T01:40:57;12.88;;;4.03;;
55655;SDS011;41530;52.382;5.270;2024-03-23T01:43:23;11.75;;;3.58;;
55655;SDS011;41530;52.382;5.270;2024-03-23T01:45:49;9.00;;;3.10;;
55655;SDS011;41530;52.382;5.270;2024-03-23T01:48:19;12.52;;;3.63;;
55655;SDS011;41530;52.382;5.270;2024-03-23T01:50:46;13.10;;;4.13;;
55655;SDS011;41530;52.382;5.270;2024-03-23T01:53:12;10.57;;;3.65;;
55655;SDS011;41530;52.382;5.270;2024-03-23T01:55:39;13.93;;;3.70;;
55655;SDS011;41530;52.382;5.270;2024-03-23T01:58:04;13.82;;;3.78;;
55655;SDS011;41530;52.382;5.270;2024-03-23T02:00:30;12.73;;;3.53;;
55655;SDS011;41530;52.382;5.270;2024-03-23T02:02:56;14.85;;;3.60;;
55655;SDS011;41530;52.382;5.270;2024-03-23T02:05:21;14.23;;;3.92;;
55655;SDS011;41530;52.382;5.270;2024-03-23T02:07:49;9.82;;;3.28;;
55655;SDS011;41530;52.382;5.270;2024-03-23T02:10:16;12.32;;;3.80;;
55655;SDS011;41530;52.382;5.270;2024-03-23T02:12:42;13.63;;;4.20;;
55655;SDS011;41530;52.382;5.270;2024-03-23T02:15:08;15.68;;;3.58;;
55655;SDS011;41530;52.382;5.270;2024-03-23T02:17:34;11.68;;;4.40;;
55655;SDS011;41530;52.382;5.270;2024-03-23T02:20:01;12.73;;;4.13;;
55655;SDS011;41530;52.382;5.270;2024-03-23T02:22:35;13.23;;;3.75;;
55655;SDS011;41530;52.382;5.270;2024-03-23T02:25:02;13.82;;;4.03;;
55655;SDS011;41530;52.382;5.270;2024-03-23T02:27:29;16.58;;;3.75;;
55655;SDS011;41530;52.382;5.270;2024-03-23T02:29:55;15.57;;;4.07;;
55655;SDS011;41530;52.382;5.270;2024-03-23T02:32:21;13.23;;;3.65;;
55655;SDS011;41530;52.382;5.270;2024-03-23T02:34:46;13.98;;;4.15;;
55655;SDS011;41530;52.382;5.270;2024-03-23T02:37:12;13.88;;;3.83;;
55655;SDS011;41530;52.382;5.270;2024-03-23T02:39:38;13.15;;;3.55;;
55655;SDS011;41530;52.382;5.270;2024-03-23T02:42:03;13.38;;;3.92;;
55655;SDS011;41530;52.382;5.270;2024-03-23T02:44:29;10.70;;;3.45;;
55655;SDS011;41530;52.382;5.270;2024-03-23T02:46:55;12.93;;;3.42;;
55655;SDS011;41530;52.382;5.270;2024-03-23T02:49:20;12.68;;;3.15;;
55655;SDS011;41530;52.382;5.270;2024-03-23T02:51:46;14.02;;;3.28;;
55655;SDS011;41530;52.382;5.270;2024-03-23T02:54:14;15.40;;;3.25;;
55655;SDS011;41530;52.382;5.270;2024-03-23T02:56:40;13.48;;;3.55;;
55655;SDS011;41530;52.382;5.270;2024-03-23T02:59:05;13.10;;;3.60;;
55655;SDS011;41530;52.382;5.270;2024-03-23T03:01:31;12.38;;;3.42;;
55655;SDS011;41530;52.382;5.270;2024-03-23T03:03:57;10.27;;;2.70;;
55655;SDS011;41530;52.382;5.270;2024-03-23T03:06:25;10.02;;;3.05;;
55655;SDS011;41530;52.382;5.270;2024-03-23T03:08:51;9.27;;;3.28;;
55655;SDS011;41530;52.382;5.270;2024-03-23T03:11:17;11.90;;;3.00;;
55655;SDS011;41530;52.382;5.270;2024-03-23T03:13:42;14.07;;;3.10;;
55655;SDS011;41530;52.382;5.270;2024-03-23T03:16:09;14.27;;;3.25;;
55655;SDS011;41530;52.382;5.270;2024-03-23T03:18:35;10.13;;;2.72;;
55655;SDS011;41530;52.382;5.270;2024-03-23T03:21:01;9.27;;;2.45;;
55655;SDS011;41530;52.382;5.270;2024-03-23T03:23:27;10.27;;;2.63;;
55655;SDS011;41530;52.382;5.270;2024-03-23T03:25:53;11.35;;;3.30;;
55655;SDS011;41530;52.382;5.270;2024-03-23T03:28:18;9.07;;;2.60;;
55655;SDS011;41530;52.382;5.270;2024-03-23T03:30:45;13.63;;;2.65;;
55655;SDS011;41530;52.382;5.270;2024-03-23T03:33:11;14.40;;;3.25;;
55655;SDS011;41530;52.382;5.270;2024-03-23T03:35:36;12.07;;;3.05;;
55655;SDS011;41530;52.382;5.270;2024-03-23T03:38:04;13.27;;;2.88;;
55655;SDS011;41530;52.382;5.270;2024-03-23T03:40:29;11.15;;;2.45;;
55655;SDS011;41530;52.382;5.270;2024-03-23T03:42:55;10.65;;;2.40;;
55655;SDS011;41530;52.382;5.270;2024-03-23T03:45:21;9.48;;;2.25;;
55655;SDS011;41530;52.382;5.270;2024-03-23T03:47:47;7.43;;;2.40;;
55655;SDS011;41530;52.382;5.270;2024-03-23T03:50:12;11.43;;;2.50;;
55655;SDS011;41530;52.382;5.270;2024-03-23T03:52:38;9.80;;;2.42;;
55655;SDS011;41530;52.382;5.270;2024-03-23T03:55:04;12.93;;;2.47;;
55655;SDS011;41530;52.382;5.270;2024-03-23T03:57:38;10.77;;;2.20;;
55655;SDS011;41530;52.382;5.270;2024-03-23T04:00:04;10.18;;;2.17;;
55655;SDS011;41530;52.382;5.270;2024-03-23T04:02:30;12.27;;;2.60;;
55655;SDS011;41530;52.382;5.270;2024-03-23T04:04:56;10.15;;;2.50;;
55655;SDS011;41530;52.382;5.270;2024-03-23T04:07:22;8.05;;;2.15;;
55655;SDS011;41530;52.382;5.270;2024-03-23T04:09:48;8.52;;;2.05;;
55655;SDS011;41530;52.382;5.270;2024-03-23T04:12:14;8.63;;;2.13;;
55655;SDS011;41530;52.382;5.270;2024-03-23T04:14:40;7.50;;;2.00;;
55655;SDS011;41530;52.382;5.270;2024-03-23T04:17:06;11.82;;;2.40;;
55655;SDS011;41530;52.382;5.270;2024-03-23T04:19:32;9.10;;;2.38;;
55655;SDS011;41530;52.382;5.270;2024-03-23T04:21:57;9.07;;;2.22;;
55655;SDS011;41530;52.382;5.270;2024-03-23T04:24:23;11.60;;;2.33;;
55655;SDS011;41530;52.382;5.270;2024-03-23T04:26:50;9.30;;;2.15;;
55655;SDS011;41530;52.382;5.270;2024-03-23T04:29:15;7.97;;;2.08;;
55655;SDS011;41530;52.382;5.270;2024-03-23T04:31:41;7.65;;;2.28;;
55655;SDS011;41530;52.382;5.270;2024-03-23T04:34:06;10.77;;;2.33;;
55655;SDS011;41530;52.382;5.270;2024-03-23T04:36:32;9.63;;;2.13;;
55655;SDS011;41530;52.382;5.270;2024-03-23T04:38:59;8.10;;;2.10;;
55655;SDS011;41530;52.382;5.270;2024-03-23T04:41:25;11.73;;;2.00;;
55655;SDS011;41530;52.382;5.270;2024-03-23T04:43:51;8.60;;;2.40;;
55655;SDS011;41530;52.382;5.270;2024-03-23T04:46:17;7.05;;;2.13;;
55655;SDS011;41530;52.382;5.270;2024-03-23T04:48:42;11.02;;;2.33;;
55655;SDS011;41530;52.382;5.270;2024-03-23T04:51:10;11.30;;;2.58;;
55655;SDS011;41530;52.382;5.270;2024-03-23T04:53:39;7.93;;;1.92;;
55655;SDS011;41530;52.382;5.270;2024-03-23T04:56:04;9.70;;;1.95;;
55655;SDS011;41530;52.382;5.270;2024-03-23T04:58:30;7.68;;;2.35;;
55655;SDS011;41530;52.382;5.270;2024-03-23T05:00:56;9.63;;;2.28;;
55655;SDS011;41530;52.382;5.270;2024-03-23T05:03:22;9.15;;;2.40;;
55655;SDS011;41530;52.382;5.270;2024-03-23T05:05:49;8.63;;;2.65;;
55655;SDS011;41530;52.382;5.270;2024-03-23T05:08:15;8.15;;;1.98;;
55655;SDS011;41530;52.382;5.270;2024-03-23T05:10:42;9.15;;;2.58;;
55655;SDS011;41530;52.382;5.270;2024-03-23T05:13:08;7.97;;;2.00;;
55655;SDS011;41530;52.382;5.270;2024-03-23T05:15:34;8.18;;;2.00;;
55655;SDS011;41530;52.382;5.270;2024-03-23T05:18:00;14.07;;;2.83;;
55655;SDS011;41530;52.382;5.270;2024-03-23T05:20:26;8.38;;;2.30;;
55655;SDS011;41530;52.382;5.270;2024-03-23T05:22:51;9.05;;;2.42;;
55655;SDS011;41530;52.382;5.270;2024-03-23T05:25:17;10.32;;;2.08;;
55655;SDS011;41530;52.382;5.270;2024-03-23T05:27:43;8.23;;;1.98;;
55655;SDS011;41530;52.382;5.270;2024-03-23T05:30:08;8.57;;;2.03;;
55655;SDS011;41530;52.382;5.270;2024-03-23T05:32:34;9.05;;;2.08;;
55655;SDS011;41530;52.382;5.270;2024-03-23T05:35:00;10.10;;;2.03;;
55655;SDS011;41530;52.382;5.270;2024-03-23T05:37:26;9.60;;;2.53;;
55655;SDS011;41530;52.382;5.270;2024-03-23T05:39:51;8.90;;;2.45;;
55655;SDS011;41530;52.382;5.270;2024-03-23T05:42:17;8.98;;;2.25;;
55655;SDS011;41530;52.382;5.270;2024-03-23T05:44:44;8.45;;;2.13;;
55655;SDS011;41530;52.382;5.270;2024-03-23T05:47:10;10.77;;;2.28;;
55655;SDS011;41530;52.382;5.270;2024-03-23T05:49:38;5.05;;;1.60;;
55655;SDS011;41530;52.382;5.270;2024-03-23T05:52:04;6.78;;;1.83;;
55655;SDS011;41530;52.382;5.270;2024-03-23T05:54:29;7.05;;;1.63;;
55655;SDS011;41530;52.382;5.270;2024-03-23T05:56:55;9.23;;;2.00;;
55655;SDS011;41530;52.382;5.270;2024-03-23T05:59:21;6.93;;;2.10;;
55655;SDS011;41530;52.382;5.270;2024-03-23T06:01:47;4.82;;;1.80;;
55655;SDS011;41530;52.382;5.270;2024-03-23T06:04:13;7.53;;;1.80;;
55655;SDS011;41530;52.382;5.270;2024-03-23T06:06:41;13.30;;;2.50;;
55655;SDS011;41530;52.382;5.270;2024-03-23T06:09:07;8.20;;;1.80;;
55655;SDS011;41530;52.382;5.270;2024-03-23T06:11:33;6.53;;;1.65;;
55655;SDS011;41530;52.382;5.270;2024-03-23T06:13:58;10.18;;;2.78;;
55655;SDS011;41530;52.382;5.270;2024-03-23T06:16:24;7.07;;;1.70;;
55655;SDS011;41530;52.382;5.270;2024-03-23T06:18:50;5.90;;;1.67;;
55655;SDS011;41530;52.382;5.270;2024-03-23T06:21:16;8.10;;;2.28;;
55655;SDS011;41530;52.382;5.270;2024-03-23T06:23:42;7.38;;;1.70;;
55655;SDS011;41530;52.382;5.270;2024-03-23T06:26:08;8.77;;;2.08;;
55655;SDS011;41530;52.382;5.270;2024-03-23T06:28:34;11.43;;;2.05;;
55655;SDS011;41530;52.382;5.270;2024-03-23T06:30:59;8.27;;;1.80;;
55655;SDS011;41530;52.382;5.270;2024-03-23T06:33:25;9.95;;;1.98;;
55655;SDS011;41530;52.382;5.270;2024-03-23T06:35:51;6.30;;;2.08;;
55655;SDS011;41530;52.382;5.270;2024-03-23T06:38:17;9.57;;;2.20;;
55655;SDS011;41530;52.382;5.270;2024-03-23T06:40:43;11.57;;;2.33;;
55655;SDS011;41530;52.382;5.270;2024-03-23T06:43:13;10.65;;;2.53;;
55655;SDS011;41530;52.382;5.270;2024-03-23T06:45:39;7.93;;;2.17;;
55655;SDS011;41530;52.382;5.270;2024-03-23T06:48:04;12.73;;;2.47;;
55655;SDS011;41530;52.382;5.270;2024-03-23T06:50:33;11.80;;;2.30;;
55655;SDS011;41530;52.382;5.270;2024-03-23T06:52:59;14.85;;;2.58;;
55655;SDS011;41530;52.382;5.270;2024-03-23T06:55:27;9.05;;;2.28;;
55655;SDS011;41530;52.382;5.270;2024-03-23T06:57:53;10.43;;;2.45;;
55655;SDS011;41530;52.382;5.270;2024-03-23T07:00:19;9.32;;;2.30;;
55655;SDS011;41530;52.382;5.270;2024-03-23T07:02:44;14.98;;;2.85;;
55655;SDS011;41530;52.382;5.270;2024-03-23T07:05:10;10.45;;;2.50;;
55655;SDS011;41530;52.382;5.270;2024-03-23T07:07:37;10.45;;;2.28;;
55655;SDS011;41530;52.382;5.270;2024-03-23T07:10:05;9.95;;;2.55;;
55655;SDS011;41530;52.382;5.270;2024-03-23T07:12:31;10.57;;;2.67;;
55655;SDS011;41530;52.382;5.270;2024-03-23T07:14:57;9.82;;;2.70;;
55655;SDS011;41530;52.382;5.270;2024-03-23T07:17:22;8.23;;;1.92;;
55655;SDS011;41530;52.382;5.270;2024-03-23T07:19:48;7.38;;;1.92;;
55655;SDS011;41530;52.382;5.270;2024-03-23T07:22:13;12.73;;;2.30;;
55655;SDS011;41530;52.382;5.270;2024-03-23T07:24:39;7.55;;;2.10;;
55655;SDS011;41530;52.382;5.270;2024-03-23T07:27:05;7.07;;;2.20;;
55655;SDS011;41530;52.382;5.270;2024-03-23T07:29:38;7.30;;;2.15;;
55655;SDS011;41530;52.382;5.270;2024-03-23T07:32:03;8.65;;;2.40;;
55655;SDS011;41530;52.382;5.270;2024-03-23T07:34:29;4.78;;;1.80;;
55655;SDS011;41530;52.382;5.270;2024-03-23T07:36:55;7.15;;;1.77;;
55655;SDS011;41530;52.382;5.270;2024-03-23T07:39:21;7.10;;;2.00;;
55655;SDS011;41530;52.382;5.270;2024-03-23T07:41:46;6.38;;;2.00;;
55655;SDS011;41530;52.382;5.270;2024-03-23T07:44:12;7.90;;;2.35;;
55655;SDS011;41530;52.382;5.270;2024-03-23T07:46:37;9.88;;;2.13;;
55655;SDS011;41530;52.382;5.270;2024-03-23T07:49:06;8.93;;;2.10;;
55655;SDS011;41530;52.382;5.270;2024-03-23T07:51:32;9.02;;;2.28;;
55655;SDS011;41530;52.382;5.270;2024-03-23T07:53:59;6.47;;;1.70;;
55655;SDS011;41530;52.382;5.270;2024-03-23T07:56:24;9.60;;;2.00;;
55655;SDS011;41530;52.382;5.270;2024-03-23T07:58:50;6.68;;;2.08;;
55655;SDS011;41530;52.382;5.270;2024-03-23T08:01:16;11.82;;;2.15;;
55655;SDS011;41530;52.382;5.270;2024-03-23T08:03:45;8.25;;;1.90;;
55655;SDS011;41530;52.382;5.270;2024-03-23T08:06:12;5.20;;;1.67;;
55655;SDS011;41530;52.382;5.270;2024-03-23T08:08:40;5.13;;;1.90;;
55655;SDS011;41530;52.382;5.270;2024-03-23T08:11:06;5.00;;;1.52;;
55655;SDS011;41530;52.382;5.270;2024-03-23T08:13:33;6.63;;;1.90;;
55655;SDS011;41530;52.382;5.270;2024-03-23T08:16:00;7.43;;;2.17;;
55655;SDS011;41530;52.382;5.270;2024-03-23T08:18:27;8.18;;;1.90;;
55655;SDS011;41530;52.382;5.270;2024-03-23T08:20:59;6.15;;;1.90;;
55655;SDS011;41530;52.382;5.270;2024-03-23T08:23:29;7.97;;;2.17;;
55655;SDS011;41530;52.382;5.270;2024-03-23T08:25:59;5.28;;;1.90;;
55655;SDS011;41530;52.382;5.270;2024-03-23T08:28:25;7.95;;;1.70;;
55655;SDS011;41530;52.382;5.270;2024-03-23T08:30:55;7.18;;;1.98;;
55655;SDS011;41530;52.382;5.270;2024-03-23T08:33:21;6.32;;;1.75;;
55655;SDS011;41530;52.382;5.270;2024-03-23T08:35:56;8.30;;;1.80;;
55655;SDS011;41530;52.382;5.270;2024-03-23T08:38:23;8.45;;;2.10;;
55655;SDS011;41530;52.382;5.270;2024-03-23T08:43:42;6.93;;;1.70;;
55655;SDS011;41530;52.382;5.270;2024-03-23T08:46:08;5.07;;;1.65;;
55655;SDS011;41530;52.382;5.270;2024-03-23T08:48:43;8.00;;;1.90;;
55655;SDS011;41530;52.382;5.270;2024-03-23T08:51:14;7.05;;;1.50;;
55655;SDS011;41530;52.382;5.270;2024-03-23T08:53:43;6.25;;;1.70;;
55655;SDS011;41530;52.382;5.270;2024-03-23T08:56:09;5.70;;;1.63;;
55655;SDS011;41530;52.382;5.270;2024-03-23T08:58:36;5.45;;;1.83;;
55655;SDS011;41530;52.382;5.270;2024-03-23T09:01:09;5.63;;;1.63;;
55655;SDS011;41530;52.382;5.270;2024-03-23T09:03:36;7.03;;;1.85;;
55655;SDS011;41530;52.382;5.270;2024-03-23T09:06:02;6.05;;;2.08;;
55655;SDS011;41530;52.382;5.270;2024-03-23T09:08:32;5.30;;;1.98;;
55655;SDS011;41530;52.382;5.270;2024-03-23T09:11:03;6.50;;;1.70;;
55655;SDS011;41530;52.382;5.270;2024-03-23T09:13:31;6.55;;;1.50;;
55655;SDS011;41530;52.382;5.270;2024-03-23T09:16:00;6.68;;;1.77;;
55655;SDS011;41530;52.382;5.270;2024-03-23T09:18:27;3.53;;;1.27;;
55655;SDS011;41530;52.382;5.270;2024-03-23T09:20:53;5.40;;;1.92;;
55655;SDS011;41530;52.382;5.270;2024-03-23T09:23:20;7.28;;;1.63;;
55655;SDS011;41530;52.382;5.270;2024-03-23T09:25:46;7.80;;;1.70;;
55655;SDS011;41530;52.382;5.270;2024-03-23T09:28:12;5.10;;;1.42;;
55655;SDS011;41530;52.382;5.270;2024-03-23T09:30:38;5.90;;;1.60;;
55655;SDS011;41530;52.382;5.270;2024-03-23T09:33:08;9.07;;;1.92;;
55655;SDS011;41530;52.382;5.270;2024-03-23T09:35:50;7.00;;;1.67;;
55655;SDS011;41530;52.382;5.270;2024-03-23T09:38:15;4.70;;;1.80;;
55655;SDS011;41530;52.382;5.270;2024-03-23T09:40:41;5.05;;;1.35;;
55655;SDS011;41530;52.382;5.270;2024-03-23T09:43:08;5.65;;;1.80;;
55655;SDS011;41530;52.382;5.270;2024-03-23T09:45:35;4.55;;;1.40;;
55655;SDS011;41530;52.382;5.270;2024-03-23T09:48:04;4.03;;;1.40;;
55655;SDS011;41530;52.382;5.270;2024-03-23T09:50:31;5.78;;;1.70;;
55655;SDS011;41530;52.382;5.270;2024-03-23T09:53:22;4.35;;;1.60;;
55655;SDS011;41530;52.382;5.270;2024-03-23T09:56:13;4.15;;;1.50;;
55655;SDS011;41530;52.382;5.270;2024-03-23T09:58:41;5.07;;;1.40;;
55655;SDS011;41530;52.382;5.270;2024-03-23T10:01:07;6.47;;;1.60;;
55655;SDS011;41530;52.382;5.270;2024-03-23T10:03:41;4.55;;;1.45;;
55655;SDS011;41530;52.382;5.270;2024-03-23T10:06:08;6.55;;;1.40;;
55655;SDS011;41530;52.382;5.270;2024-03-23T10:08:33;4.80;;;1.27;;
55655;SDS011;41530;52.382;5.270;2024-03-23T10:11:22;4.30;;;1.50;;
55655;SDS011;41530;52.382;5.270;2024-03-23T10:13:47;5.95;;;1.25;;
55655;SDS011;41530;52.382;5.270;2024-03-23T10:16:23;5.35;;;1.20;;
55655;SDS011;41530;52.382;5.270;2024-03-23T10:18:49;6.15;;;1.85;;
55655;SDS011;41530;52.382;5.270;2024-03-23T10:21:15;3.47;;;1.35;;
55655;SDS011;41530;52.382;5.270;2024-03-23T10:23:42;3.25;;;1.08;;
55655;SDS011;41530;52.382;5.270;2024-03-23T10:31:20;5.55;;;1.50;;
55655;SDS011;41530;52.382;5.270;2024-03-23T10:33:46;3.53;;;1.27;;
55655;SDS011;41530;52.382;5.270;2024-03-23T10:36:13;6.32;;;1.80;;
55655;SDS011;41530;52.382;5.270;2024-03-23T10:38:43;3.28;;;1.17;;
55655;SDS011;41530;52.382;5.270;2024-03-23T10:41:10;4.00;;;1.23;;
55655;SDS011;41530;52.382;5.270;2024-03-23T10:43:36;5.50;;;1.15;;
55655;SDS011;41530;52.382;5.270;2024-03-23T10:46:03;4.95;;;1.63;;
55655;SDS011;41530;52.382;5.270;2024-03-23T10:48:29;4.13;;;1.30;;
55655;SDS011;41530;52.382;5.270;2024-03-23T10:50:54;5.97;;;1.27;;
55655;SDS011;41530;52.382;5.270;2024-03-23T10:53:25;5.07;;;1.40;;
55655;SDS011;41530;52.382;5.270;2024-03-23T10:55:52;3.33;;;1.20;;
55655;SDS011;41530;52.382;5.270;2024-03-23T10:58:21;6.60;;;1.52;;
55655;SDS011;41530;52.382;5.270;2024-03-23T11:00:52;4.07;;;1.50;;
55655;SDS011;41530;52.382;5.270;2024-03-23T11:03:31;6.93;;;1.38;;
55655;SDS011;41530;52.382;5.270;2024-03-23T11:05:57;3.58;;;1.05;;
55655;SDS011;41530;52.382;5.270;2024-03-23T11:08:30;7.55;;;1.90;;
55655;SDS011;41530;52.382;5.270;2024-03-23T11:13:49;4.20;;;1.30;;
55655;SDS011;41530;52.382;5.270;2024-03-23T11:16:22;4.68;;;1.30;;
55655;SDS011;41530;52.382;5.270;2024-03-23T11:18:49;7.93;;;1.63;;
55655;SDS011;41530;52.382;5.270;2024-03-23T11:21:51;5.68;;;1.60;;
55655;SDS011;41530;52.382;5.270;2024-03-23T11:24:20;4.00;;;1.20;;
55655;SDS011;41530;52.382;5.270;2024-03-23T11:26:47;6.72;;;1.58;;
55655;SDS011;41530;52.382;5.270;2024-03-23T11:29:14;4.70;;;1.27;;
55655;SDS011;41530;52.382;5.270;2024-03-23T11:31:51;4.88;;;1.63;;
55655;SDS011;41530;52.382;5.270;2024-03-23T11:34:18;6.28;;;1.33;;
55655;SDS011;41530;52.382;5.270;2024-03-23T11:36:44;5.40;;;1.30;;
55655;SDS011;41530;52.382;5.270;2024-03-23T11:39:11;3.13;;;1.20;;
55655;SDS011;41530;52.382;5.270;2024-03-23T11:41:45;4.70;;;1.33;;
55655;SDS011;41530;52.382;5.270;2024-03-23T11:44:15;5.78;;;1.55;;
55655;SDS011;41530;52.382;5.270;2024-03-23T11:46:41;4.70;;;1.55;;
55655;SDS011;41530;52.382;5.270;2024-03-23T11:49:19;4.30;;;1.10;;
55655;SDS011;41530;52.382;5.270;2024-03-23T11:51:48;5.13;;;1.40;;
55655;SDS011;41530;52.382;5.270;2024-03-23T11:54:14;4.10;;;1.38;;
55655;SDS011;41530;52.382;5.270;2024-03-23T11:56:40;5.68;;;1.23;;
55655;SDS011;41530;52.382;5.270;2024-03-23T11:59:08;3.63;;;1.30;;
55655;SDS011;41530;52.382;5.270;2024-03-23T12:01:34;6.00;;;1.40;;
55655;SDS011;41530;52.382;5.270;2024-03-23T12:04:00;3.55;;;1.20;;
55655;SDS011;41530;52.382;5.270;2024-03-23T12:06:25;3.30;;;1.30;;
55655;SDS011;41530;52.382;5.270;2024-03-23T12:08:51;3.03;;;1.20;;
55655;SDS011;41530;52.382;5.270;2024-03-23T12:11:17;4.18;;;1.38;;
55655;SDS011;41530;52.382;5.270;2024-03-23T12:13:43;3.83;;;1.35;;
55655;SDS011;41530;52.382;5.270;2024-03-23T12:18:49;3.33;;;1.30;;
55655;SDS011;41530;52.382;5.270;2024-03-23T12:21:16;7.00;;;1.80;;
55655;SDS011;41530;52.382;5.270;2024-03-23T12:23:43;5.07;;;1.25;;
55655;SDS011;41530;52.382;5.270;2024-03-23T12:26:10;5.80;;;1.30;;
55655;SDS011;41530;52.382;5.270;2024-03-23T12:28:38;5.03;;;1.33;;
55655;SDS011;41530;52.382;5.270;2024-03-23T12:31:04;4.63;;;1.23;;
55655;SDS011;41530;52.382;5.270;2024-03-23T12:33:30;4.63;;;1.67;;
55655;SDS011;41530;52.382;5.270;2024-03-23T12:35:56;2.75;;;1.20;;
55655;SDS011;41530;52.382;5.270;2024-03-23T12:38:22;3.83;;;1.50;;
55655;SDS011;41530;52.382;5.270;2024-03-23T12:40:50;4.28;;;1.27;;
55655;SDS011;41530;52.382;5.270;2024-03-23T12:43:16;4.28;;;1.27;;
55655;SDS011;41530;52.382;5.270;2024-03-23T12:45:46;4.47;;;1.48;;
55655;SDS011;41530;52.382;5.270;2024-03-23T12:48:12;2.72;;;1.20;;
55655;SDS011;41530;52.382;5.270;2024-03-23T12:50:38;3.15;;;1.10;;
55655;SDS011;41530;52.382;5.270;2024-03-23T12:53:03;4.45;;;1.10;;
55655;SDS011;41530;52.382;5.270;2024-03-23T12:55:29;5.57;;;1.55;;
55655;SDS011;41530;52.382;5.270;2024-03-23T12:57:55;3.65;;;1.20;;
55655;SDS011;41530;52.382;5.270;2024-03-23T13:00:20;5.63;;;1.63;;
55655;SDS011;41530;52.382;5.270;2024-03-23T13:02:46;6.60;;;1.40;;
55655;SDS011;41530;52.382;5.270;2024-03-23T13:05:11;5.78;;;1.35;;
55655;SDS011;41530;52.382;5.270;2024-03-23T13:07:37;5.20;;;1.52;;
55655;SDS011;41530;52.382;5.270;2024-03-23T13:10:04;4.15;;;1.30;;
55655;SDS011;41530;52.382;5.270;2024-03-23T13:12:30;3.88;;;1.00;;
55655;SDS011;41530;52.382;5.270;2024-03-23T13:14:59;10.90;;;1.60;;
55655;SDS011;41530;52.382;5.270;2024-03-23T13:17:32;7.57;;;1.70;;
55655;SDS011;41530;52.382;5.270;2024-03-23T13:20:14;4.10;;;1.35;;
55655;SDS011;41530;52.382;5.270;2024-03-23T13:22:46;3.40;;;1.25;;
55655;SDS011;41530;52.382;5.270;2024-03-23T13:25:12;3.33;;;0.90;;
55655;SDS011;41530;52.382;5.270;2024-03-23T13:27:41;4.05;;;1.33;;
55655;SDS011;41530;52.382;5.270;2024-03-23T13:30:07;4.13;;;1.33;;
55655;SDS011;41530;52.382;5.270;2024-03-23T13:32:35;8.20;;;1.83;;
55655;SDS011;41530;52.382;5.270;2024-03-23T13:35:05;4.85;;;1.38;;
55655;SDS011;41530;52.382;5.270;2024-03-23T13:37:31;6.18;;;1.30;;
55655;SDS011;41530;52.382;5.270;2024-03-23T13:39:57;4.00;;;1.10;;
55655;SDS011;41530;52.382;5.270;2024-03-23T13:42:23;3.03;;;1.20;;
55655;SDS011;41530;52.382;5.270;2024-03-23T13:44:51;6.28;;;1.42;;
55655;SDS011;41530;52.382;5.270;2024-03-23T13:47:17;6.38;;;1.25;;
55655;SDS011;41530;52.382;5.270;2024-03-23T13:49:46;2.90;;;1.20;;
55655;SDS011;41530;52.382;5.270;2024-03-23T13:52:11;4.75;;;1.10;;
55655;SDS011;41530;52.382;5.270;2024-03-23T13:54:41;3.63;;;1.00;;
55655;SDS011;41530;52.382;5.270;2024-03-23T13:57:20;4.05;;;1.40;;
55655;SDS011;41530;52.382;5.270;2024-03-23T13:59:51;5.75;;;1.30;;
55655;SDS011;41530;52.382;5.270;2024-03-23T14:02:19;3.47;;;1.27;;
55655;SDS011;41530;52.382;5.270;2024-03-23T14:04:50;3.72;;;1.17;;
55655;SDS011;41530;52.382;5.270;2024-03-23T14:07:16;4.22;;;1.10;;
55655;SDS011;41530;52.382;5.270;2024-03-23T14:09:43;9.32;;;0.93;;
55655;SDS011;41530;52.382;5.270;2024-03-23T14:12:09;4.47;;;0.95;;
55655;SDS011;41530;52.382;5.270;2024-03-23T14:14:35;2.88;;;0.88;;
55655;SDS011;41530;52.382;5.270;2024-03-23T14:17:01;2.47;;;0.93;;
55655;SDS011;41530;52.382;5.270;2024-03-23T14:19:26;3.65;;;1.00;;
55655;SDS011;41530;52.382;5.270;2024-03-23T14:21:52;5.85;;;1.10;;
55655;SDS011;41530;52.382;5.270;2024-03-23T14:24:19;4.40;;;1.10;;
55655;SDS011;41530;52.382;5.270;2024-03-23T14:26:50;2.63;;;0.82;;
55655;SDS011;41530;52.382;5.270;2024-03-23T14:29:22;2.97;;;1.08;;
55655;SDS011;41530;52.382;5.270;2024-03-23T14:31:48;3.42;;;1.10;;
55655;SDS011;41530;52.382;5.270;2024-03-23T14:34:14;6.03;;;1.00;;
55655;SDS011;41530;52.382;5.270;2024-03-23T14:36:40;3.58;;;0.90;;
55655;SDS011;41530;52.382;5.270;2024-03-23T14:39:06;4.63;;;0.93;;
55655;SDS011;41530;52.382;5.270;2024-03-23T14:41:33;4.25;;;1.10;;
55655;SDS011;41530;52.382;5.270;2024-03-23T14:43:59;4.03;;;1.10;;
55655;SDS011;41530;52.382;5.270;2024-03-23T14:46:25;5.13;;;1.25;;
55655;SDS011;41530;52.382;5.270;2024-03-23T14:48:51;2.65;;;1.00;;
55655;SDS011;41530;52.382;5.270;2024-03-23T14:51:16;6.55;;;1.35;;
55655;SDS011;41530;52.382;5.270;2024-03-23T14:53:45;3.00;;;0.98;;
55655;SDS011;41530;52.382;5.270;2024-03-23T14:56:11;4.45;;;0.90;;
55655;SDS011;41530;52.382;5.270;2024-03-23T14:58:40;3.15;;;1.05;;
55655;SDS011;41530;52.382;5.270;2024-03-23T15:01:13;3.55;;;0.98;;
55655;SDS011;41530;52.382;5.270;2024-03-23T15:03:39;5.28;;;1.33;;
55655;SDS011;41530;52.382;5.270;2024-03-23T15:06:05;3.95;;;1.30;;
55655;SDS011;41530;52.382;5.270;2024-03-23T15:08:32;4.78;;;1.00;;
55655;SDS011;41530;52.382;5.270;2024-03-23T15:11:01;2.17;;;0.88;;
55655;SDS011;41530;52.382;5.270;2024-03-23T15:13:31;5.47;;;1.10;;
55655;SDS011;41530;52.382;5.270;2024-03-23T15:16:01;4.30;;;0.93;;
55655;SDS011;41530;52.382;5.270;2024-03-23T15:18:29;4.47;;;1.35;;
55655;SDS011;41530;52.382;5.270;2024-03-23T15:21:02;2.90;;;0.95;;
55655;SDS011;41530;52.382;5.270;2024-03-23T15:23:31;3.08;;;1.00;;
55655;SDS011;41530;52.382;5.270;2024-03-23T15:25:57;1.95;;;0.70;;
55655;SDS011;41530;52.382;5.270;2024-03-23T15:28:26;2.33;;;0.80;;
55655;SDS011;41530;52.382;5.270;2024-03-23T15:31:14;4.90;;;1.38;;
55655;SDS011;41530;52.382;5.270;2024-03-23T15:33:42;3.83;;;1.25;;
55655;SDS011;41530;52.382;5.270;2024-03-23T15:36:13;2.05;;;0.88;;
55655;SDS011;41530;52.382;5.270;2024-03-23T15:38:43;4.05;;;0.90;;
55655;SDS011;41530;52.382;5.270;2024-03-23T15:41:11;3.47;;;1.15;;
55655;SDS011;41530;52.382;5.270;2024-03-23T15:43:38;3.95;;;1.08;;
55655;SDS011;41530;52.382;5.270;2024-03-23T15:46:05;3.50;;;0.80;;
55655;SDS011;41530;52.382;5.270;2024-03-23T15:48:32;3.85;;;0.85;;